sensor_id;sensor_type;location;lat;lon;timestamp;P1;durP1;ratioP1;P2;durP2;ratioP2
60354;SDS011;46198;51.464;-0.066;2023-05-02T00:02:27;4.25;;;2.70;;
60354;SDS011;46198;51.464;-0.066;2023-05-02T00:04:55;2.72;;;2.47;;
60354;SDS011;46198;51.464;-0.066;2023-05-02T00:07:27;4.35;;;2.50;;
60354;SDS011;46198;51.464;-0.066;2023-05-02T00:09:55;2.78;;;2.40;;
60354;SDS011;46198;51.464;-0.066;2023-05-02T00:12:23;6.38;;;2.63;;
60354;SDS011;46198;51.464;-0.066;2023-05-02T00:14:51;4.35;;;2.70;;
60354;SDS011;46198;51.464;-0.066;2023-05-02T00:17:21;3.50;;;2.40;;
60354;SDS011;46198;51.464;-0.066;2023-05-02T00:19:49;3.45;;;2.65;;
60354;SDS011;46198;51.464;-0.066;2023-05-02T00:22:17;6.05;;;2.78;;
60354;SDS011;46198;51.464;-0.066;2023-05-02T00:24:45;3.47;;;2.50;;
60354;SDS011;46198;51.464;-0.066;2023-05-02T00:27:13;5.82;;;3.47;;
60354;SDS011;46198;51.464;-0.066;2023-05-02T00:29:41;4.47;;;2.70;;
60354;SDS011;46198;51.464;-0.066;2023-05-02T00:35:53;3.53;;;3.00;;
60354;SDS011;46198;51.464;-0.066;2023-05-02T00:38:21;3.33;;;2.65;;
60354;SDS011;46198;51.464;-0.066;2023-05-02T00:40:49;4.70;;;2.83;;
60354;SDS011;46198;51.464;-0.066;2023-05-02T00:43:18;4.25;;;2.72;;
60354;SDS011;46198;51.464;-0.066;2023-05-02T00:45:46;5.65;;;3.25;;
60354;SDS011;46198;51.464;-0.066;2023-05-02T00:48:15;5.15;;;3.22;;
60354;SDS011;46198;51.464;-0.066;2023-05-02T00:53:15;4.72;;;3.85;;
60354;SDS011;46198;51.464;-0.066;2023-05-02T00:55:43;5.38;;;3.80;;
60354;SDS011;46198;51.464;-0.066;2023-05-02T00:58:13;8.15;;;4.32;;
60354;SDS011;46198;51.464;-0.066;2023-05-02T01:00:45;9.13;;;4.35;;
60354;SDS011;46198;51.464;-0.066;2023-05-02T01:03:26;5.47;;;3.80;;
60354;SDS011;46198;51.464;-0.066;2023-05-02T01:06:05;5.43;;;4.18;;
60354;SDS011;46198;51.464;-0.066;2023-05-02T01:08:46;5.20;;;4.18;;
60354;SDS011;46198;51.464;-0.066;2023-05-02T01:11:22;5.85;;;3.80;;
60354;SDS011;46198;51.464;-0.066;2023-05-02T01:14:02;7.50;;;4.20;;
60354;SDS011;46198;51.464;-0.066;2023-05-02T01:16:32;7.28;;;4.30;;
60354;SDS011;46198;51.464;-0.066;2023-05-02T01:19:07;6.75;;;3.75;;
60354;SDS011;46198;51.464;-0.066;2023-05-02T01:21:39;6.25;;;4.10;;
60354;SDS011;46198;51.464;-0.066;2023-05-02T01:24:11;6.55;;;4.53;;
60354;SDS011;46198;51.464;-0.066;2023-05-02T01:26:50;7.95;;;4.40;;
60354;SDS011;46198;51.464;-0.066;2023-05-02T01:29:28;8.38;;;4.68;;
60354;SDS011;46198;51.464;-0.066;2023-05-02T01:31:57;8.43;;;4.50;;
60354;SDS011;46198;51.464;-0.066;2023-05-02T01:34:28;6.32;;;4.35;;
60354;SDS011;46198;51.464;-0.066;2023-05-02T01:36:58;8.35;;;5.38;;
60354;SDS011;46198;51.464;-0.066;2023-05-02T01:42:27;8.15;;;4.78;;
60354;SDS011;46198;51.464;-0.066;2023-05-02T01:44:58;8.48;;;4.53;;
60354;SDS011;46198;51.464;-0.066;2023-05-02T01:50:24;8.32;;;4.70;;
60354;SDS011;46198;51.464;-0.066;2023-05-02T01:52:53;9.93;;;4.47;;
60354;SDS011;46198;51.464;-0.066;2023-05-02T01:55:24;7.95;;;4.50;;
60354;SDS011;46198;51.464;-0.066;2023-05-02T01:57:53;8.02;;;5.13;;
60354;SDS011;46198;51.464;-0.066;2023-05-02T02:00:24;7.57;;;5.10;;
60354;SDS011;46198;51.464;-0.066;2023-05-02T02:02:54;7.07;;;4.47;;
60354;SDS011;46198;51.464;-0.066;2023-05-02T02:05:24;7.28;;;4.55;;
60354;SDS011;46198;51.464;-0.066;2023-05-02T02:07:54;7.38;;;4.40;;
60354;SDS011;46198;51.464;-0.066;2023-05-02T02:10:24;8.82;;;4.55;;
60354;SDS011;46198;51.464;-0.066;2023-05-02T02:12:58;7.43;;;4.80;;
60354;SDS011;46198;51.464;-0.066;2023-05-02T02:15:33;11.60;;;4.75;;
60354;SDS011;46198;51.464;-0.066;2023-05-02T02:18:04;9.25;;;4.82;;
60354;SDS011;46198;51.464;-0.066;2023-05-02T02:20:36;10.32;;;5.55;;
60354;SDS011;46198;51.464;-0.066;2023-05-02T02:23:09;9.93;;;5.28;;
60354;SDS011;46198;51.464;-0.066;2023-05-02T02:25:38;7.03;;;4.40;;
60354;SDS011;46198;51.464;-0.066;2023-05-02T02:28:07;9.07;;;4.85;;
60354;SDS011;46198;51.464;-0.066;2023-05-02T02:30:37;9.70;;;5.97;;
60354;SDS011;46198;51.464;-0.066;2023-05-02T02:33:05;8.50;;;5.10;;
60354;SDS011;46198;51.464;-0.066;2023-05-02T02:35:34;8.20;;;4.88;;
60354;SDS011;46198;51.464;-0.066;2023-05-02T02:38:09;9.05;;;5.65;;
60354;SDS011;46198;51.464;-0.066;2023-05-02T02:40:43;10.20;;;5.22;;
60354;SDS011;46198;51.464;-0.066;2023-05-02T02:43:16;7.45;;;4.70;;
60354;SDS011;46198;51.464;-0.066;2023-05-02T02:45:54;7.60;;;4.50;;
60354;SDS011;46198;51.464;-0.066;2023-05-02T02:48:30;11.95;;;5.10;;
60354;SDS011;46198;51.464;-0.066;2023-05-02T02:51:05;9.32;;;5.63;;
60354;SDS011;46198;51.464;-0.066;2023-05-02T02:53:45;7.07;;;4.57;;
60354;SDS011;46198;51.464;-0.066;2023-05-02T02:56:21;8.45;;;4.90;;
60354;SDS011;46198;51.464;-0.066;2023-05-02T02:58:56;10.15;;;4.72;;
60354;SDS011;46198;51.464;-0.066;2023-05-02T03:01:29;7.93;;;4.90;;
60354;SDS011;46198;51.464;-0.066;2023-05-02T03:03:59;15.13;;;5.80;;
60354;SDS011;46198;51.464;-0.066;2023-05-02T03:06:32;11.70;;;6.45;;
60354;SDS011;46198;51.464;-0.066;2023-05-02T03:09:00;11.35;;;5.78;;
60354;SDS011;46198;51.464;-0.066;2023-05-02T03:11:29;13.18;;;5.90;;
60354;SDS011;46198;51.464;-0.066;2023-05-02T03:13:57;10.10;;;5.30;;
60354;SDS011;46198;51.464;-0.066;2023-05-02T03:16:37;14.32;;;5.03;;
60354;SDS011;46198;51.464;-0.066;2023-05-02T03:19:10;11.02;;;4.95;;
60354;SDS011;46198;51.464;-0.066;2023-05-02T03:21:38;13.07;;;5.60;;
60354;SDS011;46198;51.464;-0.066;2023-05-02T03:24:13;13.98;;;5.30;;
60354;SDS011;46198;51.464;-0.066;2023-05-02T03:26:45;8.75;;;4.97;;
60354;SDS011;46198;51.464;-0.066;2023-05-02T03:29:16;9.30;;;5.15;;
60354;SDS011;46198;51.464;-0.066;2023-05-02T03:31:46;10.77;;;4.80;;
60354;SDS011;46198;51.464;-0.066;2023-05-02T03:34:14;11.68;;;5.10;;
60354;SDS011;46198;51.464;-0.066;2023-05-02T03:36:45;9.27;;;5.05;;
60354;SDS011;46198;51.464;-0.066;2023-05-02T03:39:13;10.60;;;4.88;;
60354;SDS011;46198;51.464;-0.066;2023-05-02T03:41:42;12.40;;;5.13;;
60354;SDS011;46198;51.464;-0.066;2023-05-02T03:47:10;7.90;;;4.88;;
60354;SDS011;46198;51.464;-0.066;2023-05-02T03:49:40;14.05;;;5.38;;
60354;SDS011;46198;51.464;-0.066;2023-05-02T03:52:09;7.38;;;4.70;;
60354;SDS011;46198;51.464;-0.066;2023-05-02T03:54:38;7.70;;;4.20;;
60354;SDS011;46198;51.464;-0.066;2023-05-02T03:57:07;9.50;;;5.45;;
60354;SDS011;46198;51.464;-0.066;2023-05-02T03:59:36;6.25;;;4.82;;
60354;SDS011;46198;51.464;-0.066;2023-05-02T04:02:16;9.90;;;5.70;;
60354;SDS011;46198;51.464;-0.066;2023-05-02T04:04:47;9.15;;;5.78;;
60354;SDS011;46198;51.464;-0.066;2023-05-02T04:10:12;9.40;;;5.38;;
60354;SDS011;46198;51.464;-0.066;2023-05-02T04:12:50;8.55;;;5.22;;
60354;SDS011;46198;51.464;-0.066;2023-05-02T04:15:19;12.50;;;4.93;;
60354;SDS011;46198;51.464;-0.066;2023-05-02T04:17:50;11.48;;;5.47;;
60354;SDS011;46198;51.464;-0.066;2023-05-02T04:20:19;8.88;;;5.45;;
60354;SDS011;46198;51.464;-0.066;2023-05-02T04:22:50;9.38;;;5.63;;
60354;SDS011;46198;51.464;-0.066;2023-05-02T04:25:18;10.60;;;6.43;;
60354;SDS011;46198;51.464;-0.066;2023-05-02T04:27:48;8.13;;;5.20;;
60354;SDS011;46198;51.464;-0.066;2023-05-02T04:30:20;8.73;;;4.97;;
60354;SDS011;46198;51.464;-0.066;2023-05-02T04:33:01;9.38;;;5.50;;
60354;SDS011;46198;51.464;-0.066;2023-05-02T04:35:33;11.30;;;6.38;;
60354;SDS011;46198;51.464;-0.066;2023-05-02T04:40:56;9.93;;;5.57;;
60354;SDS011;46198;51.464;-0.066;2023-05-02T04:43:31;11.43;;;5.78;;
60354;SDS011;46198;51.464;-0.066;2023-05-02T04:46:01;10.75;;;6.28;;
60354;SDS011;46198;51.464;-0.066;2023-05-02T04:48:34;11.95;;;7.70;;
60354;SDS011;46198;51.464;-0.066;2023-05-02T04:51:02;11.30;;;6.50;;
60354;SDS011;46198;51.464;-0.066;2023-05-02T04:53:31;10.93;;;6.28;;
60354;SDS011;46198;51.464;-0.066;2023-05-02T04:55:59;11.40;;;5.93;;
60354;SDS011;46198;51.464;-0.066;2023-05-02T04:58:28;9.98;;;5.95;;
60354;SDS011;46198;51.464;-0.066;2023-05-02T05:01:01;11.05;;;5.43;;
60354;SDS011;46198;51.464;-0.066;2023-05-02T05:03:29;10.20;;;5.57;;
60354;SDS011;46198;51.464;-0.066;2023-05-02T05:06:00;7.10;;;4.95;;
60354;SDS011;46198;51.464;-0.066;2023-05-02T05:08:29;5.75;;;4.50;;
60354;SDS011;46198;51.464;-0.066;2023-05-02T05:10:58;5.03;;;3.88;;
60354;SDS011;46198;51.464;-0.066;2023-05-02T05:13:27;5.57;;;4.07;;
60354;SDS011;46198;51.464;-0.066;2023-05-02T05:15:56;7.05;;;4.03;;
60354;SDS011;46198;51.464;-0.066;2023-05-02T05:18:27;5.13;;;4.20;;
60354;SDS011;46198;51.464;-0.066;2023-05-02T05:20:55;7.75;;;4.05;;
60354;SDS011;46198;51.464;-0.066;2023-05-02T05:23:25;6.65;;;4.00;;
60354;SDS011;46198;51.464;-0.066;2023-05-02T05:25:53;4.40;;;3.63;;
60354;SDS011;46198;51.464;-0.066;2023-05-02T05:28:22;6.97;;;3.90;;
60354;SDS011;46198;51.464;-0.066;2023-05-02T05:30:50;5.28;;;3.70;;
60354;SDS011;46198;51.464;-0.066;2023-05-02T05:33:20;5.75;;;3.88;;
60354;SDS011;46198;51.464;-0.066;2023-05-02T05:35:49;6.25;;;3.70;;
60354;SDS011;46198;51.464;-0.066;2023-05-02T05:38:17;8.10;;;3.97;;
60354;SDS011;46198;51.464;-0.066;2023-05-02T05:40:49;6.78;;;3.58;;
60354;SDS011;46198;51.464;-0.066;2023-05-02T05:43:17;5.13;;;3.35;;
60354;SDS011;46198;51.464;-0.066;2023-05-02T05:45:45;5.53;;;3.30;;
60354;SDS011;46198;51.464;-0.066;2023-05-02T05:48:14;5.80;;;3.28;;
60354;SDS011;46198;51.464;-0.066;2023-05-02T05:50:44;8.07;;;4.22;;
60354;SDS011;46198;51.464;-0.066;2023-05-02T05:53:13;5.55;;;3.67;;
60354;SDS011;46198;51.464;-0.066;2023-05-02T05:55:43;6.47;;;3.77;;
60354;SDS011;46198;51.464;-0.066;2023-05-02T05:58:12;9.45;;;4.60;;
60354;SDS011;46198;51.464;-0.066;2023-05-02T06:00:42;7.70;;;4.53;;
60354;SDS011;46198;51.464;-0.066;2023-05-02T06:03:10;7.15;;;4.07;;
60354;SDS011;46198;51.464;-0.066;2023-05-02T06:05:38;8.95;;;5.28;;
60354;SDS011;46198;51.464;-0.066;2023-05-02T06:08:07;7.53;;;4.10;;
60354;SDS011;46198;51.464;-0.066;2023-05-02T06:10:35;9.90;;;4.28;;
60354;SDS011;46198;51.464;-0.066;2023-05-02T06:13:03;6.80;;;4.43;;
60354;SDS011;46198;51.464;-0.066;2023-05-02T06:15:36;6.82;;;4.32;;
60354;SDS011;46198;51.464;-0.066;2023-05-02T06:18:05;7.57;;;4.60;;
60354;SDS011;46198;51.464;-0.066;2023-05-02T06:20:34;10.07;;;4.82;;
60354;SDS011;46198;51.464;-0.066;2023-05-02T06:23:02;7.53;;;4.53;;
60354;SDS011;46198;51.464;-0.066;2023-05-02T06:25:30;11.18;;;4.97;;
60354;SDS011;46198;51.464;-0.066;2023-05-02T06:27:59;11.10;;;5.00;;
60354;SDS011;46198;51.464;-0.066;2023-05-02T06:30:27;11.85;;;5.47;;
60354;SDS011;46198;51.464;-0.066;2023-05-02T06:32:56;7.60;;;5.82;;
60354;SDS011;46198;51.464;-0.066;2023-05-02T06:35:24;10.05;;;5.45;;
60354;SDS011;46198;51.464;-0.066;2023-05-02T06:37:52;11.00;;;5.75;;
60354;SDS011;46198;51.464;-0.066;2023-05-02T06:40:20;14.93;;;6.20;;
60354;SDS011;46198;51.464;-0.066;2023-05-02T06:42:48;13.70;;;6.47;;
60354;SDS011;46198;51.464;-0.066;2023-05-02T06:45:20;11.48;;;6.60;;
60354;SDS011;46198;51.464;-0.066;2023-05-02T06:47:48;14.55;;;7.95;;
60354;SDS011;46198;51.464;-0.066;2023-05-02T06:50:18;8.88;;;5.68;;
60354;SDS011;46198;51.464;-0.066;2023-05-02T06:52:47;11.85;;;7.10;;
60354;SDS011;46198;51.464;-0.066;2023-05-02T06:55:15;10.15;;;6.43;;
60354;SDS011;46198;51.464;-0.066;2023-05-02T06:57:43;12.45;;;6.47;;
60354;SDS011;46198;51.464;-0.066;2023-05-02T07:00:12;10.35;;;5.88;;
60354;SDS011;46198;51.464;-0.066;2023-05-02T07:02:41;8.80;;;4.80;;
60354;SDS011;46198;51.464;-0.066;2023-05-02T07:05:09;10.05;;;6.70;;
60354;SDS011;46198;51.464;-0.066;2023-05-02T07:07:38;11.35;;;5.60;;
60354;SDS011;46198;51.464;-0.066;2023-05-02T07:10:07;10.98;;;5.40;;
60354;SDS011;46198;51.464;-0.066;2023-05-02T07:12:35;8.43;;;6.03;;
60354;SDS011;46198;51.464;-0.066;2023-05-02T07:15:04;10.18;;;5.85;;
60354;SDS011;46198;51.464;-0.066;2023-05-02T07:17:33;11.48;;;5.53;;
60354;SDS011;46198;51.464;-0.066;2023-05-02T07:20:01;9.43;;;4.53;;
60354;SDS011;46198;51.464;-0.066;2023-05-02T07:27:28;9.75;;;5.97;;
60354;SDS011;46198;51.464;-0.066;2023-05-02T07:29:56;8.82;;;5.50;;
60354;SDS011;46198;51.464;-0.066;2023-05-02T07:32:24;8.98;;;6.45;;
60354;SDS011;46198;51.464;-0.066;2023-05-02T07:34:53;15.27;;;7.22;;
60354;SDS011;46198;51.464;-0.066;2023-05-02T07:37:21;10.55;;;7.13;;
60354;SDS011;46198;51.464;-0.066;2023-05-02T07:39:49;11.00;;;7.28;;
60354;SDS011;46198;51.464;-0.066;2023-05-02T07:42:17;11.43;;;6.78;;
60354;SDS011;46198;51.464;-0.066;2023-05-02T07:44:47;11.13;;;6.50;;
60354;SDS011;46198;51.464;-0.066;2023-05-02T07:47:15;12.55;;;6.60;;
60354;SDS011;46198;51.464;-0.066;2023-05-02T07:49:43;9.77;;;5.47;;
60354;SDS011;46198;51.464;-0.066;2023-05-02T07:52:11;9.38;;;5.93;;
60354;SDS011;46198;51.464;-0.066;2023-05-02T07:57:33;8.30;;;5.05;;
60354;SDS011;46198;51.464;-0.066;2023-05-02T08:00:02;10.82;;;5.68;;
60354;SDS011;46198;51.464;-0.066;2023-05-02T08:02:39;13.00;;;5.13;;
60354;SDS011;46198;51.464;-0.066;2023-05-02T08:05:08;7.30;;;5.03;;
60354;SDS011;46198;51.464;-0.066;2023-05-02T08:07:36;8.52;;;5.38;;
60354;SDS011;46198;51.464;-0.066;2023-05-02T08:10:04;8.63;;;6.00;;
60354;SDS011;46198;51.464;-0.066;2023-05-02T08:12:36;9.07;;;6.20;;
60354;SDS011;46198;51.464;-0.066;2023-05-02T08:15:07;11.68;;;6.40;;
60354;SDS011;46198;51.464;-0.066;2023-05-02T08:17:38;13.10;;;6.63;;
60354;SDS011;46198;51.464;-0.066;2023-05-02T08:20:07;9.60;;;5.63;;
60354;SDS011;46198;51.464;-0.066;2023-05-02T08:22:35;10.52;;;5.88;;
60354;SDS011;46198;51.464;-0.066;2023-05-02T08:25:03;11.13;;;6.18;;
60354;SDS011;46198;51.464;-0.066;2023-05-02T08:27:32;8.88;;;6.60;;
60354;SDS011;46198;51.464;-0.066;2023-05-02T08:30:01;12.38;;;6.32;;
60354;SDS011;46198;51.464;-0.066;2023-05-02T08:32:32;10.73;;;5.72;;
60354;SDS011;46198;51.464;-0.066;2023-05-02T08:35:00;10.85;;;7.07;;
60354;SDS011;46198;51.464;-0.066;2023-05-02T08:37:29;15.32;;;7.43;;
60354;SDS011;46198;51.464;-0.066;2023-05-02T08:39:58;14.20;;;7.60;;
60354;SDS011;46198;51.464;-0.066;2023-05-02T08:42:27;13.50;;;6.75;;
60354;SDS011;46198;51.464;-0.066;2023-05-02T08:44:56;10.18;;;6.10;;
60354;SDS011;46198;51.464;-0.066;2023-05-02T08:47:24;11.75;;;5.07;;
60354;SDS011;46198;51.464;-0.066;2023-05-02T08:49:55;11.52;;;6.28;;
60354;SDS011;46198;51.464;-0.066;2023-05-02T08:52:26;11.57;;;5.47;;
60354;SDS011;46198;51.464;-0.066;2023-05-02T08:54:55;9.93;;;5.55;;
60354;SDS011;46198;51.464;-0.066;2023-05-02T08:57:24;15.90;;;5.93;;
60354;SDS011;46198;51.464;-0.066;2023-05-02T08:59:55;11.27;;;4.57;;
60354;SDS011;46198;51.464;-0.066;2023-05-02T09:02:27;13.82;;;5.03;;
60354;SDS011;46198;51.464;-0.066;2023-05-02T09:05:07;12.45;;;5.13;;
60354;SDS011;46198;51.464;-0.066;2023-05-02T09:07:43;7.90;;;4.10;;
60354;SDS011;46198;51.464;-0.066;2023-05-02T09:10:12;13.95;;;5.30;;
60354;SDS011;46198;51.464;-0.066;2023-05-02T09:12:40;9.93;;;3.65;;
60354;SDS011;46198;51.464;-0.066;2023-05-02T09:15:09;6.18;;;3.05;;
60354;SDS011;46198;51.464;-0.066;2023-05-02T09:17:39;8.00;;;3.90;;
60354;SDS011;46198;51.464;-0.066;2023-05-02T09:20:09;13.60;;;3.88;;
60354;SDS011;46198;51.464;-0.066;2023-05-02T09:22:38;7.05;;;3.55;;
60354;SDS011;46198;51.464;-0.066;2023-05-02T09:25:08;6.55;;;3.42;;
60354;SDS011;46198;51.464;-0.066;2023-05-02T09:27:52;8.05;;;3.72;;
60354;SDS011;46198;51.464;-0.066;2023-05-02T09:30:23;5.85;;;3.08;;
60354;SDS011;46198;51.464;-0.066;2023-05-02T09:32:52;4.38;;;2.70;;
60354;SDS011;46198;51.464;-0.066;2023-05-02T09:35:23;5.95;;;3.08;;
60354;SDS011;46198;51.464;-0.066;2023-05-02T09:37:51;8.10;;;2.75;;
60354;SDS011;46198;51.464;-0.066;2023-05-02T09:40:20;6.43;;;2.45;;
60354;SDS011;46198;51.464;-0.066;2023-05-02T09:42:49;6.57;;;2.40;;
60354;SDS011;46198;51.464;-0.066;2023-05-02T09:45:21;5.07;;;2.38;;
60354;SDS011;46198;51.464;-0.066;2023-05-02T09:47:50;8.40;;;2.80;;
60354;SDS011;46198;51.464;-0.066;2023-05-02T09:50:34;7.18;;;2.65;;
60354;SDS011;46198;51.464;-0.066;2023-05-02T09:53:03;6.40;;;2.63;;
60354;SDS011;46198;51.464;-0.066;2023-05-02T09:55:32;6.32;;;2.53;;
60354;SDS011;46198;51.464;-0.066;2023-05-02T09:58:00;10.43;;;3.17;;
60354;SDS011;46198;51.464;-0.066;2023-05-02T10:00:39;9.70;;;3.13;;
60354;SDS011;46198;51.464;-0.066;2023-05-02T10:03:08;5.57;;;2.53;;
60354;SDS011;46198;51.464;-0.066;2023-05-02T10:05:38;7.30;;;2.38;;
60354;SDS011;46198;51.464;-0.066;2023-05-02T10:08:07;11.80;;;3.47;;
60354;SDS011;46198;51.464;-0.066;2023-05-02T10:10:36;7.10;;;2.38;;
60354;SDS011;46198;51.464;-0.066;2023-05-02T10:13:06;10.88;;;2.40;;
60354;SDS011;46198;51.464;-0.066;2023-05-02T10:15:36;5.47;;;2.40;;
60354;SDS011;46198;51.464;-0.066;2023-05-02T10:18:13;7.13;;;2.30;;
60354;SDS011;46198;51.464;-0.066;2023-05-02T10:20:51;8.15;;;2.50;;
60354;SDS011;46198;51.464;-0.066;2023-05-02T10:23:24;7.20;;;2.33;;
60354;SDS011;46198;51.464;-0.066;2023-05-02T10:25:53;6.50;;;2.15;;
60354;SDS011;46198;51.464;-0.066;2023-05-02T10:28:24;8.10;;;1.98;;
60354;SDS011;46198;51.464;-0.066;2023-05-02T10:30:53;7.93;;;3.45;;
60354;SDS011;46198;51.464;-0.066;2023-05-02T10:33:22;4.90;;;2.08;;
60354;SDS011;46198;51.464;-0.066;2023-05-02T10:38:49;8.65;;;2.25;;
60354;SDS011;46198;51.464;-0.066;2023-05-02T10:41:19;8.00;;;1.90;;
60354;SDS011;46198;51.464;-0.066;2023-05-02T10:43:50;4.63;;;2.03;;
60354;SDS011;46198;51.464;-0.066;2023-05-02T10:46:28;5.03;;;2.25;;
60354;SDS011;46198;51.464;-0.066;2023-05-02T10:49:01;6.90;;;2.10;;
60354;SDS011;46198;51.464;-0.066;2023-05-02T10:51:32;6.95;;;2.30;;
60354;SDS011;46198;51.464;-0.066;2023-05-02T10:54:17;6.15;;;1.92;;
60354;SDS011;46198;51.464;-0.066;2023-05-02T10:57:05;8.80;;;2.42;;
60354;SDS011;46198;51.464;-0.066;2023-05-02T10:59:34;8.70;;;2.10;;
60354;SDS011;46198;51.464;-0.066;2023-05-02T11:02:03;6.07;;;2.13;;
60354;SDS011;46198;51.464;-0.066;2023-05-02T11:07:32;7.18;;;1.80;;
60354;SDS011;46198;51.464;-0.066;2023-05-02T11:12:54;7.53;;;2.30;;
60354;SDS011;46198;51.464;-0.066;2023-05-02T11:18:21;4.05;;;2.05;;
60354;SDS011;46198;51.464;-0.066;2023-05-02T11:20:49;7.18;;;2.20;;
60354;SDS011;46198;51.464;-0.066;2023-05-02T11:23:19;4.97;;;1.77;;
60354;SDS011;46198;51.464;-0.066;2023-05-02T11:25:54;8.52;;;2.08;;
60354;SDS011;46198;51.464;-0.066;2023-05-02T11:28:39;5.93;;;1.85;;
60354;SDS011;46198;51.464;-0.066;2023-05-02T11:34:23;6.70;;;2.10;;
60354;SDS011;46198;51.464;-0.066;2023-05-02T11:36:51;7.28;;;1.92;;
60354;SDS011;46198;51.464;-0.066;2023-05-02T11:39:21;5.80;;;1.80;;
60354;SDS011;46198;51.464;-0.066;2023-05-02T11:41:49;9.15;;;2.15;;
60354;SDS011;46198;51.464;-0.066;2023-05-02T11:44:17;11.38;;;2.30;;
60354;SDS011;46198;51.464;-0.066;2023-05-02T11:46:45;7.93;;;2.70;;
60354;SDS011;46198;51.464;-0.066;2023-05-02T11:49:13;7.88;;;2.17;;
60354;SDS011;46198;51.464;-0.066;2023-05-02T11:51:41;10.95;;;2.65;;
60354;SDS011;46198;51.464;-0.066;2023-05-02T11:54:16;5.75;;;1.80;;
60354;SDS011;46198;51.464;-0.066;2023-05-02T11:56:47;8.20;;;2.13;;
60354;SDS011;46198;51.464;-0.066;2023-05-02T11:59:15;10.15;;;2.40;;
60354;SDS011;46198;51.464;-0.066;2023-05-02T12:01:46;5.80;;;2.17;;
60354;SDS011;46198;51.464;-0.066;2023-05-02T12:04:14;4.38;;;2.30;;
60354;SDS011;46198;51.464;-0.066;2023-05-02T12:06:53;7.88;;;2.28;;
60354;SDS011;46198;51.464;-0.066;2023-05-02T12:09:22;5.25;;;2.10;;
60354;SDS011;46198;51.464;-0.066;2023-05-02T12:11:52;5.07;;;2.05;;
60354;SDS011;46198;51.464;-0.066;2023-05-02T12:14:27;7.75;;;2.20;;
60354;SDS011;46198;51.464;-0.066;2023-05-02T12:16:56;6.30;;;1.77;;
60354;SDS011;46198;51.464;-0.066;2023-05-02T12:19:25;4.38;;;2.10;;
60354;SDS011;46198;51.464;-0.066;2023-05-02T12:21:54;10.43;;;2.47;;
60354;SDS011;46198;51.464;-0.066;2023-05-02T12:24:22;8.00;;;2.60;;
60354;SDS011;46198;51.464;-0.066;2023-05-02T12:29:39;8.23;;;2.55;;
60354;SDS011;46198;51.464;-0.066;2023-05-02T12:32:08;6.60;;;2.33;;
60354;SDS011;46198;51.464;-0.066;2023-05-02T12:34:37;5.68;;;2.33;;
60354;SDS011;46198;51.464;-0.066;2023-05-02T12:37:06;10.40;;;2.30;;
60354;SDS011;46198;51.464;-0.066;2023-05-02T12:39:35;7.18;;;2.50;;
60354;SDS011;46198;51.464;-0.066;2023-05-02T12:42:08;9.02;;;2.70;;
60354;SDS011;46198;51.464;-0.066;2023-05-02T12:44:38;5.90;;;2.17;;
60354;SDS011;46198;51.464;-0.066;2023-05-02T12:47:07;7.72;;;2.40;;
60354;SDS011;46198;51.464;-0.066;2023-05-02T12:49:48;7.38;;;2.63;;
60354;SDS011;46198;51.464;-0.066;2023-05-02T12:52:17;4.03;;;1.88;;
60354;SDS011;46198;51.464;-0.066;2023-05-02T12:54:46;8.07;;;2.38;;
60354;SDS011;46198;51.464;-0.066;2023-05-02T12:57:21;6.40;;;2.35;;
60354;SDS011;46198;51.464;-0.066;2023-05-02T12:59:52;4.68;;;2.70;;
60354;SDS011;46198;51.464;-0.066;2023-05-02T13:02:20;7.20;;;1.98;;
60354;SDS011;46198;51.464;-0.066;2023-05-02T13:04:49;8.18;;;2.20;;
60354;SDS011;46198;51.464;-0.066;2023-05-02T13:07:17;7.45;;;2.38;;
60354;SDS011;46198;51.464;-0.066;2023-05-02T13:09:45;7.95;;;2.47;;
60354;SDS011;46198;51.464;-0.066;2023-05-02T13:12:13;11.32;;;2.38;;
60354;SDS011;46198;51.464;-0.066;2023-05-02T13:14:42;7.50;;;2.10;;
60354;SDS011;46198;51.464;-0.066;2023-05-02T13:17:12;6.50;;;2.20;;
60354;SDS011;46198;51.464;-0.066;2023-05-02T13:19:40;5.15;;;2.10;;
60354;SDS011;46198;51.464;-0.066;2023-05-02T13:22:19;6.13;;;2.15;;
60354;SDS011;46198;51.464;-0.066;2023-05-02T13:24:47;8.70;;;2.42;;
60354;SDS011;46198;51.464;-0.066;2023-05-02T13:27:15;5.57;;;2.30;;
60354;SDS011;46198;51.464;-0.066;2023-05-02T13:29:44;7.82;;;2.63;;
60354;SDS011;46198;51.464;-0.066;2023-05-02T13:32:13;6.18;;;2.47;;
60354;SDS011;46198;51.464;-0.066;2023-05-02T13:34:41;3.90;;;2.00;;
60354;SDS011;46198;51.464;-0.066;2023-05-02T13:37:09;9.18;;;3.10;;
60354;SDS011;46198;51.464;-0.066;2023-05-02T13:39:37;12.38;;;2.80;;
60354;SDS011;46198;51.464;-0.066;2023-05-02T13:42:05;6.25;;;2.33;;
60354;SDS011;46198;51.464;-0.066;2023-05-02T13:44:33;6.40;;;2.10;;
60354;SDS011;46198;51.464;-0.066;2023-05-02T13:47:01;5.68;;;2.17;;
60354;SDS011;46198;51.464;-0.066;2023-05-02T13:49:31;9.00;;;2.35;;
60354;SDS011;46198;51.464;-0.066;2023-05-02T13:51:59;9.35;;;2.60;;
60354;SDS011;46198;51.464;-0.066;2023-05-02T13:54:27;9.05;;;2.50;;
60354;SDS011;46198;51.464;-0.066;2023-05-02T13:56:55;8.88;;;2.63;;
60354;SDS011;46198;51.464;-0.066;2023-05-02T13:59:23;6.22;;;2.50;;
60354;SDS011;46198;51.464;-0.066;2023-05-02T14:01:51;11.20;;;2.80;;
60354;SDS011;46198;51.464;-0.066;2023-05-02T14:04:19;5.85;;;2.17;;
60354;SDS011;46198;51.464;-0.066;2023-05-02T14:06:50;6.25;;;2.22;;
60354;SDS011;46198;51.464;-0.066;2023-05-02T14:09:18;5.40;;;2.58;;
60354;SDS011;46198;51.464;-0.066;2023-05-02T14:11:46;6.53;;;2.78;;
60354;SDS011;46198;51.464;-0.066;2023-05-02T14:14:14;6.10;;;2.15;;
60354;SDS011;46198;51.464;-0.066;2023-05-02T14:16:43;6.07;;;2.53;;
60354;SDS011;46198;51.464;-0.066;2023-05-02T14:19:12;5.72;;;2.15;;
60354;SDS011;46198;51.464;-0.066;2023-05-02T14:21:40;8.80;;;3.10;;
60354;SDS011;46198;51.464;-0.066;2023-05-02T14:24:09;8.27;;;2.78;;
60354;SDS011;46198;51.464;-0.066;2023-05-02T14:26:40;9.90;;;3.03;;
60354;SDS011;46198;51.464;-0.066;2023-05-02T14:29:08;6.88;;;2.20;;
60354;SDS011;46198;51.464;-0.066;2023-05-02T14:31:36;8.77;;;2.40;;
60354;SDS011;46198;51.464;-0.066;2023-05-02T14:34:04;3.83;;;2.00;;
60354;SDS011;46198;51.464;-0.066;2023-05-02T14:36:34;7.72;;;3.20;;
60354;SDS011;46198;51.464;-0.066;2023-05-02T14:39:02;5.32;;;2.35;;
60354;SDS011;46198;51.464;-0.066;2023-05-02T14:41:31;8.32;;;2.20;;
60354;SDS011;46198;51.464;-0.066;2023-05-02T14:43:59;6.22;;;2.25;;
60354;SDS011;46198;51.464;-0.066;2023-05-02T14:46:27;11.38;;;2.30;;
60354;SDS011;46198;51.464;-0.066;2023-05-02T14:48:56;5.55;;;2.50;;
60354;SDS011;46198;51.464;-0.066;2023-05-02T14:51:24;6.70;;;2.63;;
60354;SDS011;46198;51.464;-0.066;2023-05-02T14:53:51;7.97;;;2.50;;
60354;SDS011;46198;51.464;-0.066;2023-05-02T14:56:19;9.57;;;2.53;;
60354;SDS011;46198;51.464;-0.066;2023-05-02T14:58:49;9.27;;;2.40;;
60354;SDS011;46198;51.464;-0.066;2023-05-02T15:01:17;2.63;;;2.08;;
60354;SDS011;46198;51.464;-0.066;2023-05-02T15:03:46;10.07;;;2.25;;
60354;SDS011;46198;51.464;-0.066;2023-05-02T15:06:31;6.28;;;2.42;;
60354;SDS011;46198;51.464;-0.066;2023-05-02T15:09:00;6.82;;;2.20;;
60354;SDS011;46198;51.464;-0.066;2023-05-02T15:11:28;9.63;;;2.58;;
60354;SDS011;46198;51.464;-0.066;2023-05-02T15:13:58;10.27;;;2.72;;
60354;SDS011;46198;51.464;-0.066;2023-05-02T15:16:26;8.43;;;2.50;;
60354;SDS011;46198;51.464;-0.066;2023-05-02T15:18:54;6.18;;;2.70;;
60354;SDS011;46198;51.464;-0.066;2023-05-02T15:21:22;7.40;;;2.80;;
60354;SDS011;46198;51.464;-0.066;2023-05-02T15:23:50;4.47;;;2.33;;
60354;SDS011;46198;51.464;-0.066;2023-05-02T15:26:18;4.05;;;2.08;;
60354;SDS011;46198;51.464;-0.066;2023-05-02T15:28:46;5.07;;;2.53;;
60354;SDS011;46198;51.464;-0.066;2023-05-02T15:31:16;7.63;;;2.67;;
60354;SDS011;46198;51.464;-0.066;2023-05-02T15:33:44;8.00;;;2.65;;
60354;SDS011;46198;51.464;-0.066;2023-05-02T15:36:12;7.50;;;2.65;;